sensor_id;sensor_type;location;lat;lon;timestamp;P1;durP1;ratioP1;P2;durP2;ratioP2
25207;SDS011;13153;52.316;21.166;2022-08-03T00:00:06;9.50;;;5.55;;
25207;SDS011;13153;52.316;21.166;2022-08-03T00:02:33;8.50;;;5.43;;
25207;SDS011;13153;52.316;21.166;2022-08-03T00:04:59;8.40;;;5.40;;
25207;SDS011;13153;52.316;21.166;2022-08-03T00:07:24;10.50;;;6.18;;
25207;SDS011;13153;52.316;21.166;2022-08-03T00:09:50;6.35;;;5.65;;
25207;SDS011;13153;52.316;21.166;2022-08-03T00:12:16;9.40;;;5.60;;
25207;SDS011;13153;52.316;21.166;2022-08-03T00:14:41;7.10;;;5.80;;
25207;SDS011;13153;52.316;21.166;2022-08-03T00:17:07;10.85;;;5.60;;
25207;SDS011;13153;52.316;21.166;2022-08-03T00:19:33;7.25;;;5.63;;
25207;SDS011;13153;52.316;21.166;2022-08-03T00:21:59;8.52;;;5.78;;
25207;SDS011;13153;52.316;21.166;2022-08-03T00:24:24;7.35;;;5.47;;
25207;SDS011;13153;52.316;21.166;2022-08-03T00:26:50;8.75;;;6.35;;
25207;SDS011;13153;52.316;21.166;2022-08-03T00:29:16;7.43;;;5.72;;
25207;SDS011;13153;52.316;21.166;2022-08-03T00:31:42;9.18;;;5.95;;
25207;SDS011;13153;52.316;21.166;2022-08-03T00:34:07;8.98;;;5.95;;
25207;SDS011;13153;52.316;21.166;2022-08-03T00:36:33;12.75;;;5.68;;
25207;SDS011;13153;52.316;21.166;2022-08-03T00:38:59;8.98;;;6.00;;
25207;SDS011;13153;52.316;21.166;2022-08-03T00:41:25;7.05;;;5.75;;
25207;SDS011;13153;52.316;21.166;2022-08-03T00:43:50;9.05;;;6.28;;
25207;SDS011;13153;52.316;21.166;2022-08-03T00:46:16;9.27;;;6.00;;
25207;SDS011;13153;52.316;21.166;2022-08-03T00:48:42;9.60;;;6.18;;
25207;SDS011;13153;52.316;21.166;2022-08-03T00:51:08;11.65;;;5.85;;
25207;SDS011;13153;52.316;21.166;2022-08-03T00:53:34;7.75;;;5.10;;
25207;SDS011;13153;52.316;21.166;2022-08-03T00:56:01;7.47;;;5.20;;
25207;SDS011;13153;52.316;21.166;2022-08-03T00:58:27;8.60;;;5.47;;
25207;SDS011;13153;52.316;21.166;2022-08-03T01:00:53;11.43;;;5.38;;
25207;SDS011;13153;52.316;21.166;2022-08-03T01:03:19;7.90;;;5.78;;
25207;SDS011;13153;52.316;21.166;2022-08-03T01:08:28;9.57;;;5.63;;
25207;SDS011;13153;52.316;21.166;2022-08-03T01:11:16;9.45;;;5.40;;
25207;SDS011;13153;52.316;21.166;2022-08-03T01:14:08;13.77;;;6.25;;
25207;SDS011;13153;52.316;21.166;2022-08-03T01:17:04;8.48;;;5.30;;
25207;SDS011;13153;52.316;21.166;2022-08-03T01:19:58;11.73;;;5.57;;
25207;SDS011;13153;52.316;21.166;2022-08-03T01:31:28;9.02;;;6.13;;
25207;SDS011;13153;52.316;21.166;2022-08-03T01:34:05;7.85;;;5.15;;
25207;SDS011;13153;52.316;21.166;2022-08-03T01:36:39;8.68;;;5.15;;
25207;SDS011;13153;52.316;21.166;2022-08-03T01:39:14;11.80;;;5.35;;
25207;SDS011;13153;52.316;21.166;2022-08-03T01:42:03;7.55;;;5.60;;
25207;SDS011;13153;52.316;21.166;2022-08-03T01:44:33;8.88;;;5.57;;
25207;SDS011;13153;52.316;21.166;2022-08-03T01:47:06;10.07;;;5.63;;
25207;SDS011;13153;52.316;21.166;2022-08-03T01:49:37;11.93;;;6.47;;
25207;SDS011;13153;52.316;21.166;2022-08-03T01:52:07;8.35;;;5.55;;
25207;SDS011;13153;52.316;21.166;2022-08-03T01:54:36;9.85;;;5.93;;
25207;SDS011;13153;52.316;21.166;2022-08-03T01:57:07;12.18;;;6.35;;
25207;SDS011;13153;52.316;21.166;2022-08-03T01:59:35;7.07;;;5.50;;
25207;SDS011;13153;52.316;21.166;2022-08-03T02:02:03;6.30;;;5.25;;
25207;SDS011;13153;52.316;21.166;2022-08-03T02:04:32;6.40;;;5.57;;
25207;SDS011;13153;52.316;21.166;2022-08-03T02:07:00;9.35;;;6.03;;
25207;SDS011;13153;52.316;21.166;2022-08-03T02:09:27;11.10;;;6.35;;
25207;SDS011;13153;52.316;21.166;2022-08-03T02:11:55;7.88;;;5.55;;
25207;SDS011;13153;52.316;21.166;2022-08-03T02:14:23;8.65;;;5.50;;
25207;SDS011;13153;52.316;21.166;2022-08-03T02:16:51;6.72;;;5.28;;
25207;SDS011;13153;52.316;21.166;2022-08-03T02:19:19;8.98;;;5.75;;
25207;SDS011;13153;52.316;21.166;2022-08-03T02:21:48;11.52;;;6.03;;
25207;SDS011;13153;52.316;21.166;2022-08-03T02:24:17;6.75;;;5.80;;
25207;SDS011;13153;52.316;21.166;2022-08-03T02:26:42;9.95;;;5.78;;
25207;SDS011;13153;52.316;21.166;2022-08-03T02:29:12;8.07;;;6.05;;
25207;SDS011;13153;52.316;21.166;2022-08-03T02:31:48;11.55;;;7.30;;
25207;SDS011;13153;52.316;21.166;2022-08-03T02:34:16;18.88;;;13.30;;
25207;SDS011;13153;52.316;21.166;2022-08-03T02:36:49;19.70;;;14.52;;
25207;SDS011;13153;52.316;21.166;2022-08-03T02:39:20;11.73;;;7.85;;
25207;SDS011;13153;52.316;21.166;2022-08-03T02:41:51;13.50;;;9.65;;
25207;SDS011;13153;52.316;21.166;2022-08-03T02:44:26;12.65;;;8.27;;
25207;SDS011;13153;52.316;21.166;2022-08-03T02:46:57;16.10;;;10.60;;
25207;SDS011;13153;52.316;21.166;2022-08-03T02:49:31;15.45;;;10.68;;
25207;SDS011;13153;52.316;21.166;2022-08-03T02:52:00;13.57;;;9.82;;
25207;SDS011;13153;52.316;21.166;2022-08-03T02:54:28;18.45;;;12.48;;
25207;SDS011;13153;52.316;21.166;2022-08-03T02:56:57;17.23;;;12.27;;
25207;SDS011;13153;52.316;21.166;2022-08-03T02:59:25;12.40;;;10.32;;
25207;SDS011;13153;52.316;21.166;2022-08-03T03:01:55;12.50;;;7.32;;
25207;SDS011;13153;52.316;21.166;2022-08-03T03:04:23;16.55;;;11.07;;
25207;SDS011;13153;52.316;21.166;2022-08-03T03:06:53;16.98;;;11.48;;
25207;SDS011;13153;52.316;21.166;2022-08-03T03:09:21;11.18;;;7.32;;
25207;SDS011;13153;52.316;21.166;2022-08-03T03:11:48;10.13;;;6.10;;
25207;SDS011;13153;52.316;21.166;2022-08-03T03:14:16;11.63;;;6.00;;
25207;SDS011;13153;52.316;21.166;2022-08-03T03:16:44;9.18;;;6.65;;
25207;SDS011;13153;52.316;21.166;2022-08-03T03:19:13;8.93;;;6.10;;
25207;SDS011;13153;52.316;21.166;2022-08-03T03:21:40;13.13;;;6.82;;
25207;SDS011;13153;52.316;21.166;2022-08-03T03:24:09;14.90;;;8.00;;
25207;SDS011;13153;52.316;21.166;2022-08-03T03:26:36;12.32;;;7.00;;
25207;SDS011;13153;52.316;21.166;2022-08-03T03:29:03;12.40;;;7.13;;
25207;SDS011;13153;52.316;21.166;2022-08-03T03:31:30;11.15;;;7.20;;
25207;SDS011;13153;52.316;21.166;2022-08-03T03:33:57;9.77;;;6.93;;
25207;SDS011;13153;52.316;21.166;2022-08-03T03:36:23;9.10;;;6.45;;
25207;SDS011;13153;52.316;21.166;2022-08-03T03:38:49;11.25;;;7.28;;
25207;SDS011;13153;52.316;21.166;2022-08-03T03:41:15;9.07;;;7.53;;
25207;SDS011;13153;52.316;21.166;2022-08-03T03:43:41;12.55;;;7.15;;
25207;SDS011;13153;52.316;21.166;2022-08-03T03:46:07;9.73;;;7.10;;
25207;SDS011;13153;52.316;21.166;2022-08-03T03:48:37;11.68;;;6.72;;
25207;SDS011;13153;52.316;21.166;2022-08-03T03:51:03;10.10;;;7.18;;
25207;SDS011;13153;52.316;21.166;2022-08-03T03:53:31;12.07;;;7.55;;
25207;SDS011;13153;52.316;21.166;2022-08-03T03:55:56;12.50;;;7.35;;
25207;SDS011;13153;52.316;21.166;2022-08-03T03:58:22;10.40;;;7.28;;
25207;SDS011;13153;52.316;21.166;2022-08-03T04:00:48;14.07;;;8.90;;
25207;SDS011;13153;52.316;21.166;2022-08-03T04:03:14;10.20;;;7.82;;
25207;SDS011;13153;52.316;21.166;2022-08-03T04:05:40;14.00;;;7.88;;
25207;SDS011;13153;52.316;21.166;2022-08-03T04:08:25;12.25;;;7.78;;
25207;SDS011;13153;52.316;21.166;2022-08-03T04:13:52;9.93;;;7.72;;
25207;SDS011;13153;52.316;21.166;2022-08-03T04:16:25;13.65;;;8.20;;
25207;SDS011;13153;52.316;21.166;2022-08-03T04:18:58;16.38;;;7.55;;
25207;SDS011;13153;52.316;21.166;2022-08-03T04:21:44;15.48;;;8.05;;
25207;SDS011;13153;52.316;21.166;2022-08-03T04:24:15;17.77;;;8.88;;
25207;SDS011;13153;52.316;21.166;2022-08-03T04:26:47;15.82;;;8.50;;
25207;SDS011;13153;52.316;21.166;2022-08-03T04:29:15;22.35;;;9.82;;
25207;SDS011;13153;52.316;21.166;2022-08-03T04:31:43;12.30;;;8.60;;
25207;SDS011;13153;52.316;21.166;2022-08-03T04:34:11;16.05;;;10.50;;
25207;SDS011;13153;52.316;21.166;2022-08-03T04:36:39;17.83;;;9.55;;
25207;SDS011;13153;52.316;21.166;2022-08-03T04:39:22;15.55;;;9.60;;
25207;SDS011;13153;52.316;21.166;2022-08-03T04:41:54;15.05;;;8.93;;
25207;SDS011;13153;52.316;21.166;2022-08-03T04:44:26;17.13;;;9.88;;
25207;SDS011;13153;52.316;21.166;2022-08-03T04:46:55;14.07;;;9.18;;
25207;SDS011;13153;52.316;21.166;2022-08-03T04:49:23;12.27;;;9.30;;
25207;SDS011;13153;52.316;21.166;2022-08-03T04:51:50;17.92;;;9.32;;
25207;SDS011;13153;52.316;21.166;2022-08-03T04:54:17;16.88;;;9.80;;
25207;SDS011;13153;52.316;21.166;2022-08-03T04:56:42;17.27;;;10.35;;
25207;SDS011;13153;52.316;21.166;2022-08-03T04:59:09;22.67;;;10.35;;
25207;SDS011;13153;52.316;21.166;2022-08-03T05:01:35;17.40;;;10.55;;
25207;SDS011;13153;52.316;21.166;2022-08-03T05:04:01;15.65;;;9.63;;
25207;SDS011;13153;52.316;21.166;2022-08-03T05:06:27;19.23;;;10.15;;
25207;SDS011;13153;52.316;21.166;2022-08-03T05:08:53;22.75;;;9.68;;
25207;SDS011;13153;52.316;21.166;2022-08-03T05:11:19;22.38;;;9.10;;
25207;SDS011;13153;52.316;21.166;2022-08-03T05:13:45;14.48;;;8.50;;
25207;SDS011;13153;52.316;21.166;2022-08-03T05:16:12;15.25;;;8.38;;
25207;SDS011;13153;52.316;21.166;2022-08-03T05:18:39;14.73;;;8.18;;
25207;SDS011;13153;52.316;21.166;2022-08-03T05:21:06;12.15;;;7.45;;
25207;SDS011;13153;52.316;21.166;2022-08-03T05:23:33;10.63;;;7.45;;
25207;SDS011;13153;52.316;21.166;2022-08-03T05:26:00;12.02;;;6.90;;
25207;SDS011;13153;52.316;21.166;2022-08-03T05:28:25;12.85;;;6.97;;
25207;SDS011;13153;52.316;21.166;2022-08-03T05:30:51;11.45;;;6.28;;
25207;SDS011;13153;52.316;21.166;2022-08-03T05:33:17;11.80;;;6.32;;
25207;SDS011;13153;52.316;21.166;2022-08-03T05:35:43;7.40;;;6.22;;
25207;SDS011;13153;52.316;21.166;2022-08-03T05:38:08;7.90;;;6.45;;
25207;SDS011;13153;52.316;21.166;2022-08-03T05:40:34;9.13;;;6.07;;
25207;SDS011;13153;52.316;21.166;2022-08-03T05:43:00;10.10;;;6.65;;
25207;SDS011;13153;52.316;21.166;2022-08-03T05:45:26;10.23;;;5.90;;
25207;SDS011;13153;52.316;21.166;2022-08-03T05:47:52;9.63;;;6.97;;
25207;SDS011;13153;52.316;21.166;2022-08-03T05:50:18;13.70;;;7.63;;
25207;SDS011;13153;52.316;21.166;2022-08-03T05:52:45;13.85;;;7.95;;
25207;SDS011;13153;52.316;21.166;2022-08-03T05:55:12;17.10;;;8.18;;
25207;SDS011;13153;52.316;21.166;2022-08-03T05:57:38;13.85;;;7.70;;
25207;SDS011;13153;52.316;21.166;2022-08-03T06:00:06;13.25;;;8.43;;
25207;SDS011;13153;52.316;21.166;2022-08-03T06:02:34;14.20;;;8.18;;
25207;SDS011;13153;52.316;21.166;2022-08-03T06:05:00;14.00;;;8.25;;
25207;SDS011;13153;52.316;21.166;2022-08-03T06:07:26;12.85;;;8.23;;
25207;SDS011;13153;52.316;21.166;2022-08-03T06:09:53;11.50;;;8.15;;
25207;SDS011;13153;52.316;21.166;2022-08-03T06:12:18;13.02;;;8.60;;
25207;SDS011;13153;52.316;21.166;2022-08-03T06:14:44;10.75;;;7.90;;
25207;SDS011;13153;52.316;21.166;2022-08-03T06:17:10;14.27;;;7.75;;
25207;SDS011;13153;52.316;21.166;2022-08-03T06:19:36;10.98;;;7.20;;
25207;SDS011;13153;52.316;21.166;2022-08-03T06:22:02;11.95;;;7.97;;
25207;SDS011;13153;52.316;21.166;2022-08-03T06:24:28;9.02;;;8.02;;
25207;SDS011;13153;52.316;21.166;2022-08-03T06:26:54;12.18;;;7.60;;
25207;SDS011;13153;52.316;21.166;2022-08-03T06:29:20;14.55;;;7.72;;
25207;SDS011;13153;52.316;21.166;2022-08-03T06:31:46;11.85;;;7.47;;
25207;SDS011;13153;52.316;21.166;2022-08-03T06:34:11;11.38;;;8.23;;
25207;SDS011;13153;52.316;21.166;2022-08-03T06:36:37;15.93;;;8.90;;
25207;SDS011;13153;52.316;21.166;2022-08-03T06:39:03;14.85;;;8.65;;
25207;SDS011;13153;52.316;21.166;2022-08-03T06:41:29;16.40;;;8.75;;
25207;SDS011;13153;52.316;21.166;2022-08-03T06:43:55;12.07;;;8.82;;
25207;SDS011;13153;52.316;21.166;2022-08-03T06:46:21;15.85;;;9.32;;
25207;SDS011;13153;52.316;21.166;2022-08-03T06:48:47;15.85;;;9.55;;
25207;SDS011;13153;52.316;21.166;2022-08-03T06:51:13;14.63;;;9.15;;
25207;SDS011;13153;52.316;21.166;2022-08-03T06:53:39;17.30;;;9.93;;
25207;SDS011;13153;52.316;21.166;2022-08-03T06:56:05;13.77;;;8.88;;
25207;SDS011;13153;52.316;21.166;2022-08-03T06:58:32;20.77;;;9.68;;
25207;SDS011;13153;52.316;21.166;2022-08-03T07:00:59;19.67;;;9.68;;
25207;SDS011;13153;52.316;21.166;2022-08-03T07:03:25;18.65;;;10.60;;
25207;SDS011;13153;52.316;21.166;2022-08-03T07:05:51;22.05;;;10.52;;
25207;SDS011;13153;52.316;21.166;2022-08-03T07:08:17;19.00;;;10.68;;
25207;SDS011;13153;52.316;21.166;2022-08-03T07:10:43;17.67;;;10.25;;
25207;SDS011;13153;52.316;21.166;2022-08-03T07:13:09;21.17;;;10.80;;
25207;SDS011;13153;52.316;21.166;2022-08-03T07:15:35;16.73;;;10.88;;
25207;SDS011;13153;52.316;21.166;2022-08-03T07:18:02;18.83;;;11.40;;
25207;SDS011;13153;52.316;21.166;2022-08-03T07:20:28;17.42;;;10.73;;
25207;SDS011;13153;52.316;21.166;2022-08-03T07:22:54;16.75;;;10.90;;
25207;SDS011;13153;52.316;21.166;2022-08-03T07:25:19;15.13;;;9.75;;
25207;SDS011;13153;52.316;21.166;2022-08-03T07:27:46;18.90;;;10.95;;
25207;SDS011;13153;52.316;21.166;2022-08-03T07:30:13;20.45;;;9.93;;
25207;SDS011;13153;52.316;21.166;2022-08-03T07:32:40;28.70;;;12.20;;
25207;SDS011;13153;52.316;21.166;2022-08-03T07:35:06;25.75;;;11.43;;
25207;SDS011;13153;52.316;21.166;2022-08-03T07:37:33;22.83;;;10.07;;
25207;SDS011;13153;52.316;21.166;2022-08-03T07:40:00;48.75;;;15.45;;
25207;SDS011;13153;52.316;21.166;2022-08-03T07:42:28;26.65;;;11.27;;
25207;SDS011;13153;52.316;21.166;2022-08-03T07:44:55;29.45;;;12.88;;
25207;SDS011;13153;52.316;21.166;2022-08-03T07:47:22;24.10;;;11.13;;
25207;SDS011;13153;52.316;21.166;2022-08-03T07:49:52;22.45;;;11.20;;
25207;SDS011;13153;52.316;21.166;2022-08-03T07:52:18;26.98;;;11.13;;
25207;SDS011;13153;52.316;21.166;2022-08-03T07:55:04;20.90;;;10.85;;
25207;SDS011;13153;52.316;21.166;2022-08-03T07:57:31;18.02;;;9.98;;
25207;SDS011;13153;52.316;21.166;2022-08-03T07:59:58;16.98;;;9.60;;
25207;SDS011;13153;52.316;21.166;2022-08-03T08:02:23;24.23;;;10.50;;
25207;SDS011;13153;52.316;21.166;2022-08-03T08:04:49;16.58;;;10.10;;
25207;SDS011;13153;52.316;21.166;2022-08-03T08:07:15;18.70;;;9.30;;
25207;SDS011;13153;52.316;21.166;2022-08-03T08:09:41;16.90;;;8.45;;
25207;SDS011;13153;52.316;21.166;2022-08-03T08:12:07;14.52;;;8.73;;
25207;SDS011;13153;52.316;21.166;2022-08-03T08:14:34;17.33;;;7.90;;
25207;SDS011;13153;52.316;21.166;2022-08-03T08:17:00;12.68;;;8.00;;
25207;SDS011;13153;52.316;21.166;2022-08-03T08:19:26;15.50;;;8.90;;
25207;SDS011;13153;52.316;21.166;2022-08-03T08:21:52;19.00;;;8.27;;
25207;SDS011;13153;52.316;21.166;2022-08-03T08:24:18;13.93;;;8.25;;
25207;SDS011;13153;52.316;21.166;2022-08-03T08:26:43;11.32;;;7.30;;
25207;SDS011;13153;52.316;21.166;2022-08-03T08:29:09;13.95;;;7.72;;
25207;SDS011;13153;52.316;21.166;2022-08-03T08:31:35;11.90;;;7.40;;
25207;SDS011;13153;52.316;21.166;2022-08-03T08:34:00;9.60;;;5.70;;
25207;SDS011;13153;52.316;21.166;2022-08-03T08:36:30;8.30;;;6.13;;
25207;SDS011;13153;52.316;21.166;2022-08-03T08:38:57;11.52;;;7.32;;
25207;SDS011;13153;52.316;21.166;2022-08-03T08:41:23;10.57;;;6.00;;
25207;SDS011;13153;52.316;21.166;2022-08-03T08:43:49;8.77;;;6.00;;
25207;SDS011;13153;52.316;21.166;2022-08-03T08:46:15;9.15;;;6.05;;
25207;SDS011;13153;52.316;21.166;2022-08-03T08:48:44;8.68;;;5.50;;
25207;SDS011;13153;52.316;21.166;2022-08-03T08:51:12;7.18;;;5.60;;
25207;SDS011;13153;52.316;21.166;2022-08-03T08:53:43;15.50;;;6.35;;
25207;SDS011;13153;52.316;21.166;2022-08-03T08:56:15;9.98;;;5.88;;
25207;SDS011;13153;52.316;21.166;2022-08-03T08:58:50;7.82;;;5.18;;
25207;SDS011;13153;52.316;21.166;2022-08-03T09:01:23;10.05;;;5.25;;
25207;SDS011;13153;52.316;21.166;2022-08-03T09:03:49;6.85;;;4.72;;
25207;SDS011;13153;52.316;21.166;2022-08-03T09:06:15;9.10;;;4.63;;
25207;SDS011;13153;52.316;21.166;2022-08-03T09:08:41;7.13;;;4.45;;
25207;SDS011;13153;52.316;21.166;2022-08-03T09:11:07;10.60;;;4.40;;
25207;SDS011;13153;52.316;21.166;2022-08-03T09:13:33;8.82;;;4.03;;
25207;SDS011;13153;52.316;21.166;2022-08-03T09:16:13;8.10;;;5.18;;
25207;SDS011;13153;52.316;21.166;2022-08-03T09:18:42;9.77;;;4.95;;
25207;SDS011;13153;52.316;21.166;2022-08-03T09:21:12;5.60;;;4.22;;
25207;SDS011;13153;52.316;21.166;2022-08-03T09:23:54;7.50;;;4.70;;
25207;SDS011;13153;52.316;21.166;2022-08-03T09:26:22;11.35;;;4.90;;
25207;SDS011;13153;52.316;21.166;2022-08-03T09:29:00;10.48;;;5.00;;
25207;SDS011;13153;52.316;21.166;2022-08-03T09:31:35;9.30;;;4.38;;
25207;SDS011;13153;52.316;21.166;2022-08-03T09:34:07;6.82;;;5.05;;
25207;SDS011;13153;52.316;21.166;2022-08-03T09:36:41;9.02;;;5.05;;
25207;SDS011;13153;52.316;21.166;2022-08-03T09:39:11;6.20;;;4.70;;
25207;SDS011;13153;52.316;21.166;2022-08-03T09:41:42;8.63;;;4.38;;
25207;SDS011;13153;52.316;21.166;2022-08-03T09:44:12;7.53;;;4.38;;
25207;SDS011;13153;52.316;21.166;2022-08-03T09:46:55;9.20;;;4.20;;
25207;SDS011;13153;52.316;21.166;2022-08-03T09:49:21;6.00;;;3.35;;
25207;SDS011;13153;52.316;21.166;2022-08-03T09:51:48;7.03;;;3.95;;
25207;SDS011;13153;52.316;21.166;2022-08-03T09:54:26;7.93;;;3.60;;
25207;SDS011;13153;52.316;21.166;2022-08-03T09:56:54;5.20;;;3.40;;
25207;SDS011;13153;52.316;21.166;2022-08-03T09:59:27;6.28;;;3.25;;
25207;SDS011;13153;52.316;21.166;2022-08-03T10:01:55;7.97;;;3.53;;
25207;SDS011;13153;52.316;21.166;2022-08-03T10:04:24;6.90;;;3.78;;
25207;SDS011;13153;52.316;21.166;2022-08-03T10:07:04;8.48;;;3.00;;
25207;SDS011;13153;52.316;21.166;2022-08-03T10:09:33;5.22;;;3.20;;
25207;SDS011;13153;52.316;21.166;2022-08-03T10:12:10;5.35;;;3.42;;
25207;SDS011;13153;52.316;21.166;2022-08-03T10:14:38;5.97;;;3.20;;
25207;SDS011;13153;52.316;21.166;2022-08-03T10:17:11;6.07;;;3.13;;
25207;SDS011;13153;52.316;21.166;2022-08-03T10:19:38;8.15;;;3.13;;
25207;SDS011;13153;52.316;21.166;2022-08-03T10:22:15;7.28;;;3.30;;
25207;SDS011;13153;52.316;21.166;2022-08-03T10:25:09;5.82;;;3.20;;
25207;SDS011;13153;52.316;21.166;2022-08-03T10:27:40;3.95;;;2.85;;
25207;SDS011;13153;52.316;21.166;2022-08-03T10:30:11;5.43;;;3.30;;
25207;SDS011;13153;52.316;21.166;2022-08-03T10:32:48;7.10;;;3.40;;
25207;SDS011;13153;52.316;21.166;2022-08-03T10:35:25;5.88;;;3.33;;
25207;SDS011;13153;52.316;21.166;2022-08-03T10:38:00;7.90;;;3.53;;
25207;SDS011;13153;52.316;21.166;2022-08-03T10:40:33;4.05;;;3.47;;
25207;SDS011;13153;52.316;21.166;2022-08-03T10:43:20;5.75;;;3.70;;
25207;SDS011;13153;52.316;21.166;2022-08-03T10:45:54;7.05;;;4.00;;
25207;SDS011;13153;52.316;21.166;2022-08-03T10:48:20;5.10;;;3.63;;
25207;SDS011;13153;52.316;21.166;2022-08-03T10:50:47;4.22;;;3.70;;
25207;SDS011;13153;52.316;21.166;2022-08-03T10:53:14;5.80;;;3.83;;
25207;SDS011;13153;52.316;21.166;2022-08-03T10:55:41;5.63;;;3.50;;
25207;SDS011;13153;52.316;21.166;2022-08-03T11:01:05;5.03;;;3.55;;
25207;SDS011;13153;52.316;21.166;2022-08-03T11:04:13;6.97;;;4.00;;
25207;SDS011;13153;52.316;21.166;2022-08-03T11:06:20;6.75;;;3.78;;
25207;SDS011;13153;52.316;21.166;2022-08-03T11:09:35;6.25;;;3.75;;
25207;SDS011;13153;52.316;21.166;2022-08-03T11:11:46;8.95;;;3.88;;
25207;SDS011;13153;52.316;21.166;2022-08-03T11:14:17;6.50;;;3.85;;
25207;SDS011;13153;52.316;21.166;2022-08-03T11:16:46;6.93;;;3.65;;
25207;SDS011;13153;52.316;21.166;2022-08-03T11:19:43;8.60;;;4.18;;
25207;SDS011;13153;52.316;21.166;2022-08-03T11:22:11;8.40;;;4.28;;
25207;SDS011;13153;52.316;21.166;2022-08-03T11:32:50;9.63;;;4.05;;
25207;SDS011;13153;52.316;21.166;2022-08-03T11:51:03;7.40;;;4.30;;
25207;SDS011;13153;52.316;21.166;2022-08-03T11:53:32;7.82;;;4.38;;
25207;SDS011;13153;52.316;21.166;2022-08-03T11:55:59;8.80;;;4.97;;
25207;SDS011;13153;52.316;21.166;2022-08-03T11:58:27;10.73;;;5.72;;
25207;SDS011;13153;52.316;21.166;2022-08-03T12:01:02;15.88;;;6.40;;
25207;SDS011;13153;52.316;21.166;2022-08-03T12:03:33;9.25;;;4.97;;
25207;SDS011;13153;52.316;21.166;2022-08-03T12:06:00;7.90;;;5.20;;
25207;SDS011;13153;52.316;21.166;2022-08-03T12:10:53;6.60;;;4.43;;
25207;SDS011;13153;52.316;21.166;2022-08-03T12:13:22;6.72;;;4.78;;
25207;SDS011;13153;52.316;21.166;2022-08-03T12:15:51;8.05;;;4.25;;
25207;SDS011;13153;52.316;21.166;2022-08-03T12:18:19;6.63;;;4.78;;
25207;SDS011;13153;52.316;21.166;2022-08-03T12:20:48;12.38;;;4.68;;
25207;SDS011;13153;52.316;21.166;2022-08-03T12:23:16;10.73;;;4.40;;
25207;SDS011;13153;52.316;21.166;2022-08-03T12:25:45;5.70;;;4.15;;
25207;SDS011;13153;52.316;21.166;2022-08-03T12:28:12;9.25;;;5.10;;
25207;SDS011;13153;52.316;21.166;2022-08-03T12:30:47;6.93;;;4.45;;
25207;SDS011;13153;52.316;21.166;2022-08-03T12:33:21;8.90;;;4.25;;
25207;SDS011;13153;52.316;21.166;2022-08-03T12:36:10;8.07;;;5.03;;
25207;SDS011;13153;52.316;21.166;2022-08-03T12:38:36;10.02;;;4.88;;
25207;SDS011;13153;52.316;21.166;2022-08-03T12:41:05;7.07;;;4.38;;
25207;SDS011;13153;52.316;21.166;2022-08-03T12:43:46;7.40;;;4.30;;
25207;SDS011;13153;52.316;21.166;2022-08-03T12:46:14;6.93;;;4.30;;
25207;SDS011;13153;52.316;21.166;2022-08-03T12:54:06;5.80;;;4.00;;
25207;SDS011;13153;52.316;21.166;2022-08-03T12:56:34;6.13;;;3.75;;
25207;SDS011;13153;52.316;21.166;2022-08-03T12:59:23;6.47;;;4.07;;
25207;SDS011;13153;52.316;21.166;2022-08-03T13:01:54;5.65;;;4.10;;
25207;SDS011;13153;52.316;21.166;2022-08-03T13:04:24;6.38;;;4.03;;
25207;SDS011;13153;52.316;21.166;2022-08-03T13:07:01;7.25;;;4.10;;
25207;SDS011;13153;52.316;21.166;2022-08-03T13:09:28;7.60;;;4.50;;
25207;SDS011;13153;52.316;21.166;2022-08-03T13:14:35;7.82;;;4.68;;
25207;SDS011;13153;52.316;21.166;2022-08-03T13:17:01;6.75;;;4.68;;
25207;SDS011;13153;52.316;21.166;2022-08-03T13:19:28;11.10;;;5.10;;
25207;SDS011;13153;52.316;21.166;2022-08-03T13:21:56;6.10;;;4.10;;
25207;SDS011;13153;52.316;21.166;2022-08-03T13:24:21;9.68;;;4.60;;
25207;SDS011;13153;52.316;21.166;2022-08-03T13:26:47;5.45;;;4.40;;
25207;SDS011;13153;52.316;21.166;2022-08-03T13:29:13;8.73;;;4.22;;
25207;SDS011;13153;52.316;21.166;2022-08-03T13:31:39;5.22;;;4.07;;
25207;SDS011;13153;52.316;21.166;2022-08-03T13:34:04;8.55;;;4.57;;
25207;SDS011;13153;52.316;21.166;2022-08-03T13:36:30;6.50;;;4.38;;
25207;SDS011;13153;52.316;21.166;2022-08-03T13:38:56;6.32;;;4.18;;
25207;SDS011;13153;52.316;21.166;2022-08-03T13:41:21;6.75;;;4.00;;
25207;SDS011;13153;52.316;21.166;2022-08-03T13:43:47;7.95;;;4.63;;
25207;SDS011;13153;52.316;21.166;2022-08-03T13:46:13;5.65;;;4.80;;
25207;SDS011;13153;52.316;21.166;2022-08-03T13:48:38;6.90;;;5.03;;
25207;SDS011;13153;52.316;21.166;2022-08-03T13:51:04;8.32;;;5.25;;
25207;SDS011;13153;52.316;21.166;2022-08-03T13:53:30;5.30;;;4.35;;
25207;SDS011;13153;52.316;21.166;2022-08-03T13:55:56;5.35;;;4.25;;
25207;SDS011;13153;52.316;21.166;2022-08-03T13:58:21;6.05;;;4.45;;
25207;SDS011;13153;52.316;21.166;2022-08-03T14:00:47;9.13;;;4.78;;
25207;SDS011;13153;52.316;21.166;2022-08-03T14:03:13;8.35;;;4.78;;
25207;SDS011;13153;52.316;21.166;2022-08-03T14:05:39;6.80;;;4.57;;
25207;SDS011;13153;52.316;21.166;2022-08-03T14:08:09;5.72;;;3.97;;
25207;SDS011;13153;52.316;21.166;2022-08-03T14:10:36;8.98;;;3.90;;
25207;SDS011;13153;52.316;21.166;2022-08-03T14:13:05;5.93;;;4.00;;
25207;SDS011;13153;52.316;21.166;2022-08-03T14:15:32;5.10;;;4.00;;
25207;SDS011;13153;52.316;21.166;2022-08-03T14:17:58;5.25;;;3.90;;
25207;SDS011;13153;52.316;21.166;2022-08-03T14:20:24;5.65;;;3.95;;
25207;SDS011;13153;52.316;21.166;2022-08-03T14:22:51;6.15;;;4.80;;
25207;SDS011;13153;52.316;21.166;2022-08-03T14:25:17;4.88;;;4.30;;
25207;SDS011;13153;52.316;21.166;2022-08-03T14:27:42;5.47;;;4.43;;
25207;SDS011;13153;52.316;21.166;2022-08-03T14:30:08;7.07;;;4.40;;
25207;SDS011;13153;52.316;21.166;2022-08-03T14:32:35;7.10;;;3.83;;
25207;SDS011;13153;52.316;21.166;2022-08-03T14:35:01;6.68;;;4.38;;
25207;SDS011;13153;52.316;21.166;2022-08-03T14:37:27;8.88;;;4.72;;
25207;SDS011;13153;52.316;21.166;2022-08-03T14:39:52;6.10;;;4.57;;
25207;SDS011;13153;52.316;21.166;2022-08-03T14:42:18;7.55;;;4.40;;
25207;SDS011;13153;52.316;21.166;2022-08-03T14:44:44;5.45;;;4.50;;
25207;SDS011;13153;52.316;21.166;2022-08-03T14:47:10;6.93;;;4.60;;
25207;SDS011;13153;52.316;21.166;2022-08-03T14:49:36;7.60;;;4.28;;
25207;SDS011;13153;52.316;21.166;2022-08-03T14:52:02;6.90;;;4.50;;
25207;SDS011;13153;52.316;21.166;2022-08-03T14:54:29;6.70;;;4.50;;
25207;SDS011;13153;52.316;21.166;2022-08-03T14:56:55;7.95;;;5.22;;
25207;SDS011;13153;52.316;21.166;2022-08-03T14:59:21;7.32;;;4.90;;
25207;SDS011;13153;52.316;21.166;2022-08-03T15:01:47;9.23;;;5.05;;
25207;SDS011;13153;52.316;21.166;2022-08-03T15:04:12;9.00;;;5.05;;
25207;SDS011;13153;52.316;21.166;2022-08-03T15:06:38;9.90;;;5.65;;
25207;SDS011;13153;52.316;21.166;2022-08-03T15:09:04;7.93;;;4.90;;
25207;SDS011;13153;52.316;21.166;2022-08-03T15:11:30;7.40;;;5.15;;
25207;SDS011;13153;52.316;21.166;2022-08-03T15:13:55;7.88;;;5.43;;
25207;SDS011;13153;52.316;21.166;2022-08-03T15:16:21;8.40;;;5.40;;
25207;SDS011;13153;52.316;21.166;2022-08-03T15:18:47;9.80;;;5.90;;
25207;SDS011;13153;52.316;21.166;2022-08-03T15:21:13;10.23;;;5.78;;
25207;SDS011;13153;52.316;21.166;2022-08-03T15:23:38;7.15;;;5.40;;
25207;SDS011;13153;52.316;21.166;2022-08-03T15:26:04;9.07;;;5.65;;
25207;SDS011;13153;52.316;21.166;2022-08-03T15:28:30;8.45;;;5.85;;